Aviation Digital Data Service (ADDS)

Output produced by METARs form (1828 UTC 06 July 2020)
found at http://aviationweather.gov/metar/data/
 
KRDG 061754Z 22007KT 200V260 10SM CLR 36/21 A2997 RMK AO2 LTG DSNT E SLP150 T03560206 10361 20283 58016
KRDG 061733Z VRB04KT 10SM VCTS FEW050 35/21 A2998 RMK AO2 LTG DSNT E AND SE T03500211
KRDG 061720Z 0618/0718 23010KT P6SM VCTS BKN040CB OVC100 
     TEMPO 0619/0621 2SM +TSRA BKN035CB 
     FM070100 VRB03KT P6SM BKN040 BKN100 
     FM070700 VRB02KT P6SM OVC020
       
KABE 061751Z 00000KT 10SM CLR 33/18 A2998 RMK AO2 LTG DSNT N AND SE AND S SLP150 T03330183 10339 20228 58020
KABE 061720Z 0618/0718 22008KT P6SM VCTS SCT040CB BKN100 
     FM061900 20007KT P6SM VCTS SCT035CB OVC100 
     TEMPO 0620/0623 2SM +TSRAGS BKN025CB 
     FM070100 VRB03KT P6SM BKN050 BKN250 
     FM070700 VRB02KT P6SM OVC015
       
KPNE 061813Z 16007G16KT 120V290 3SM TSRA BR FEW043 BKN070 OVC090 21/19 A3009 RMK AO2 LTG DSNT ALQDS P0009 T02060194 $
KPNE 061754Z 16010G32KT 1 1/4SM +TSRA FEW022 BKN041 OVC070 24/17 A3003 RMK AO2 PK WND 22032/1746 WSHFT 1725 LTG DSNT ALQDS SLP168 P0097 60104 T02390167 10367 20211 58000 $
KPNE 061740Z 26007G22KT 3/4SM +TSRA BKN036 BKN070 OVC090 22/18 A3005 RMK AO2 PK WND 26029/1706 WSHFT 1725 LTG DSNT ALQDS P0075 T02170183 RVRNO $
KPNE 061733Z 22016G22KT 1 3/4SM +TSRA FEW019 BKN030 OVC090 22/18 A3005 RMK AO2 PK WND 26029/1706 LTG DSNT ALQDS P0061 T02220178 $
KPNE 061720Z 0618/0718 23012KT 4SM TSRA BR SCT025CB OVC040 
     TEMPO 0618/0620 2SM +TSRAGS BKN025CB 
     FM062000 VRB04KT P6SM VCTS BKN040CB 
     FM062300 13006KT P6SM BKN040 BKN150 
     TEMPO 0623/0702 4SM TSRA BKN050CB 
     FM070700 VRB02KT P6SM OVC015